sensor_id;sensor_type;location;lat;lon;timestamp;P1;durP1;ratioP1;P2;durP2;ratioP2
8219;SDS011;4151;51.110;7.020;2024-02-26T00:00:53;2.53;;;1.03;;
8219;SDS011;4151;51.110;7.020;2024-02-26T00:03:18;2.40;;;0.93;;
8219;SDS011;4151;51.110;7.020;2024-02-26T00:05:44;1.23;;;1.03;;
8219;SDS011;4151;51.110;7.020;2024-02-26T00:08:09;3.07;;;0.90;;
8219;SDS011;4151;51.110;7.020;2024-02-26T00:10:35;1.03;;;0.87;;
8219;SDS011;4151;51.110;7.020;2024-02-26T00:13:00;1.87;;;0.90;;
8219;SDS011;4151;51.110;7.020;2024-02-26T00:15:26;1.10;;;0.73;;
8219;SDS011;4151;51.110;7.020;2024-02-26T00:17:52;1.07;;;0.97;;
8219;SDS011;4151;51.110;7.020;2024-02-26T00:20:18;2.13;;;0.90;;
8219;SDS011;4151;51.110;7.020;2024-02-26T00:22:43;2.40;;;0.93;;
8219;SDS011;4151;51.110;7.020;2024-02-26T00:25:09;1.10;;;0.93;;
8219;SDS011;4151;51.110;7.020;2024-02-26T00:27:36;1.00;;;0.80;;
8219;SDS011;4151;51.110;7.020;2024-02-26T00:30:04;1.77;;;0.80;;
8219;SDS011;4151;51.110;7.020;2024-02-26T00:32:30;1.40;;;1.03;;
8219;SDS011;4151;51.110;7.020;2024-02-26T00:34:55;1.70;;;0.97;;
8219;SDS011;4151;51.110;7.020;2024-02-26T00:37:21;1.80;;;0.90;;
8219;SDS011;4151;51.110;7.020;2024-02-26T00:39:46;1.53;;;0.90;;
8219;SDS011;4151;51.110;7.020;2024-02-26T00:42:12;1.10;;;1.00;;
8219;SDS011;4151;51.110;7.020;2024-02-26T00:44:37;0.80;;;0.73;;
8219;SDS011;4151;51.110;7.020;2024-02-26T00:47:03;1.03;;;0.67;;
8219;SDS011;4151;51.110;7.020;2024-02-26T00:49:29;1.27;;;0.80;;
8219;SDS011;4151;51.110;7.020;2024-02-26T00:51:54;1.40;;;1.00;;
8219;SDS011;4151;51.110;7.020;2024-02-26T00:54:20;1.37;;;0.73;;
8219;SDS011;4151;51.110;7.020;2024-02-26T00:56:46;2.10;;;0.80;;
8219;SDS011;4151;51.110;7.020;2024-02-26T00:59:11;1.77;;;0.90;;
8219;SDS011;4151;51.110;7.020;2024-02-26T01:01:37;2.17;;;0.80;;
8219;SDS011;4151;51.110;7.020;2024-02-26T01:04:02;1.67;;;0.80;;
8219;SDS011;4151;51.110;7.020;2024-02-26T01:06:28;2.10;;;0.90;;
8219;SDS011;4151;51.110;7.020;2024-02-26T01:08:54;1.03;;;0.93;;
8219;SDS011;4151;51.110;7.020;2024-02-26T01:11:19;1.63;;;0.80;;
8219;SDS011;4151;51.110;7.020;2024-02-26T01:13:45;1.20;;;0.80;;
8219;SDS011;4151;51.110;7.020;2024-02-26T01:16:10;1.20;;;0.73;;
8219;SDS011;4151;51.110;7.020;2024-02-26T01:18:36;6.83;;;1.00;;
8219;SDS011;4151;51.110;7.020;2024-02-26T01:21:01;2.50;;;1.17;;
8219;SDS011;4151;51.110;7.020;2024-02-26T01:23:27;1.47;;;0.93;;
8219;SDS011;4151;51.110;7.020;2024-02-26T01:25:52;5.70;;;0.80;;
8219;SDS011;4151;51.110;7.020;2024-02-26T01:28:18;1.13;;;0.70;;
8219;SDS011;4151;51.110;7.020;2024-02-26T01:30:43;1.30;;;0.77;;
8219;SDS011;4151;51.110;7.020;2024-02-26T01:33:09;1.53;;;1.00;;
8219;SDS011;4151;51.110;7.020;2024-02-26T01:35:34;1.47;;;0.90;;
8219;SDS011;4151;51.110;7.020;2024-02-26T01:38:01;1.33;;;0.87;;
8219;SDS011;4151;51.110;7.020;2024-02-26T01:40:26;2.90;;;0.63;;
8219;SDS011;4151;51.110;7.020;2024-02-26T01:42:52;1.10;;;0.70;;
8219;SDS011;4151;51.110;7.020;2024-02-26T01:45:18;5.70;;;0.80;;
8219;SDS011;4151;51.110;7.020;2024-02-26T01:47:50;1.50;;;1.03;;
8219;SDS011;4151;51.110;7.020;2024-02-26T01:50:16;1.13;;;0.80;;
8219;SDS011;4151;51.110;7.020;2024-02-26T01:52:43;1.00;;;0.70;;
8219;SDS011;4151;51.110;7.020;2024-02-26T01:55:10;1.40;;;0.73;;
8219;SDS011;4151;51.110;7.020;2024-02-26T01:57:36;0.93;;;0.60;;
8219;SDS011;4151;51.110;7.020;2024-02-26T02:00:02;1.20;;;1.00;;
8219;SDS011;4151;51.110;7.020;2024-02-26T02:02:30;0.90;;;0.80;;
8219;SDS011;4151;51.110;7.020;2024-02-26T02:04:56;1.30;;;0.80;;
8219;SDS011;4151;51.110;7.020;2024-02-26T02:07:22;1.00;;;0.83;;
8219;SDS011;4151;51.110;7.020;2024-02-26T02:09:55;1.10;;;0.73;;
8219;SDS011;4151;51.110;7.020;2024-02-26T02:12:21;2.70;;;1.20;;
8219;SDS011;4151;51.110;7.020;2024-02-26T02:14:47;1.17;;;0.80;;
8219;SDS011;4151;51.110;7.020;2024-02-26T02:17:12;0.90;;;0.70;;
8219;SDS011;4151;51.110;7.020;2024-02-26T02:19:38;0.97;;;0.80;;
8219;SDS011;4151;51.110;7.020;2024-02-26T02:22:03;2.20;;;1.00;;
8219;SDS011;4151;51.110;7.020;2024-02-26T02:24:29;1.20;;;0.80;;
8219;SDS011;4151;51.110;7.020;2024-02-26T02:26:55;1.97;;;1.00;;
8219;SDS011;4151;51.110;7.020;2024-02-26T02:29:20;1.73;;;0.90;;
8219;SDS011;4151;51.110;7.020;2024-02-26T02:31:46;1.83;;;1.10;;
8219;SDS011;4151;51.110;7.020;2024-02-26T02:34:12;2.70;;;0.80;;
8219;SDS011;4151;51.110;7.020;2024-02-26T02:36:52;1.37;;;0.90;;
8219;SDS011;4151;51.110;7.020;2024-02-26T02:39:18;3.03;;;1.07;;
8219;SDS011;4151;51.110;7.020;2024-02-26T02:41:44;1.73;;;0.80;;
8219;SDS011;4151;51.110;7.020;2024-02-26T02:44:09;1.20;;;0.80;;
8219;SDS011;4151;51.110;7.020;2024-02-26T02:46:35;1.10;;;0.70;;
8219;SDS011;4151;51.110;7.020;2024-02-26T02:49:01;1.13;;;0.73;;
8219;SDS011;4151;51.110;7.020;2024-02-26T02:51:26;1.63;;;0.80;;
8219;SDS011;4151;51.110;7.020;2024-02-26T02:53:52;2.80;;;1.00;;
8219;SDS011;4151;51.110;7.020;2024-02-26T02:56:18;5.90;;;0.90;;
8219;SDS011;4151;51.110;7.020;2024-02-26T02:58:44;1.10;;;0.90;;
8219;SDS011;4151;51.110;7.020;2024-02-26T03:01:09;2.00;;;0.90;;
8219;SDS011;4151;51.110;7.020;2024-02-26T03:03:35;1.10;;;0.90;;
8219;SDS011;4151;51.110;7.020;2024-02-26T03:06:02;0.90;;;0.67;;
8219;SDS011;4151;51.110;7.020;2024-02-26T03:08:28;4.30;;;1.20;;
8219;SDS011;4151;51.110;7.020;2024-02-26T03:10:53;1.40;;;0.90;;
8219;SDS011;4151;51.110;7.020;2024-02-26T03:13:19;1.27;;;0.80;;
8219;SDS011;4151;51.110;7.020;2024-02-26T03:15:45;1.00;;;0.80;;
8219;SDS011;4151;51.110;7.020;2024-02-26T03:18:10;2.93;;;0.90;;
8219;SDS011;4151;51.110;7.020;2024-02-26T03:20:36;1.20;;;0.90;;
8219;SDS011;4151;51.110;7.020;2024-02-26T03:23:02;2.03;;;1.10;;
8219;SDS011;4151;51.110;7.020;2024-02-26T03:25:28;2.60;;;1.27;;
8219;SDS011;4151;51.110;7.020;2024-02-26T03:27:53;1.07;;;0.87;;
8219;SDS011;4151;51.110;7.020;2024-02-26T03:30:19;1.00;;;0.90;;
8219;SDS011;4151;51.110;7.020;2024-02-26T03:32:44;1.53;;;0.80;;
8219;SDS011;4151;51.110;7.020;2024-02-26T03:35:10;2.37;;;1.23;;
8219;SDS011;4151;51.110;7.020;2024-02-26T03:37:35;1.10;;;0.70;;
8219;SDS011;4151;51.110;7.020;2024-02-26T03:40:01;1.30;;;0.73;;
8219;SDS011;4151;51.110;7.020;2024-02-26T03:42:28;1.40;;;0.80;;
8219;SDS011;4151;51.110;7.020;2024-02-26T03:44:53;1.10;;;0.90;;
8219;SDS011;4151;51.110;7.020;2024-02-26T03:47:19;1.20;;;1.00;;
8219;SDS011;4151;51.110;7.020;2024-02-26T03:49:44;4.00;;;0.90;;
8219;SDS011;4151;51.110;7.020;2024-02-26T03:52:10;1.10;;;1.00;;
8219;SDS011;4151;51.110;7.020;2024-02-26T03:54:35;0.80;;;0.70;;
8219;SDS011;4151;51.110;7.020;2024-02-26T03:57:01;1.13;;;1.03;;
8219;SDS011;4151;51.110;7.020;2024-02-26T03:59:26;0.80;;;0.60;;
8219;SDS011;4151;51.110;7.020;2024-02-26T04:01:52;1.10;;;0.73;;
8219;SDS011;4151;51.110;7.020;2024-02-26T04:04:17;2.90;;;1.10;;
8219;SDS011;4151;51.110;7.020;2024-02-26T04:06:46;1.97;;;1.00;;
8219;SDS011;4151;51.110;7.020;2024-02-26T04:09:15;1.10;;;0.80;;
8219;SDS011;4151;51.110;7.020;2024-02-26T04:11:40;2.43;;;1.00;;
8219;SDS011;4151;51.110;7.020;2024-02-26T04:14:08;3.33;;;1.07;;
8219;SDS011;4151;51.110;7.020;2024-02-26T04:16:34;0.80;;;0.70;;
8219;SDS011;4151;51.110;7.020;2024-02-26T04:19:00;1.10;;;0.80;;
8219;SDS011;4151;51.110;7.020;2024-02-26T04:21:26;5.53;;;1.10;;
8219;SDS011;4151;51.110;7.020;2024-02-26T04:23:52;1.10;;;0.70;;
8219;SDS011;4151;51.110;7.020;2024-02-26T04:26:20;1.90;;;0.97;;
8219;SDS011;4151;51.110;7.020;2024-02-26T04:28:46;0.87;;;0.80;;
8219;SDS011;4151;51.110;7.020;2024-02-26T04:31:12;1.43;;;1.00;;
8219;SDS011;4151;51.110;7.020;2024-02-26T04:33:37;1.47;;;0.90;;
8219;SDS011;4151;51.110;7.020;2024-02-26T04:36:03;1.60;;;1.00;;
8219;SDS011;4151;51.110;7.020;2024-02-26T04:38:28;1.20;;;1.10;;
8219;SDS011;4151;51.110;7.020;2024-02-26T04:40:54;1.60;;;1.00;;
8219;SDS011;4151;51.110;7.020;2024-02-26T04:43:20;6.33;;;2.20;;
8219;SDS011;4151;51.110;7.020;2024-02-26T04:45:45;1.83;;;1.20;;
8219;SDS011;4151;51.110;7.020;2024-02-26T04:48:11;1.20;;;0.87;;
8219;SDS011;4151;51.110;7.020;2024-02-26T04:50:36;1.57;;;0.90;;
8219;SDS011;4151;51.110;7.020;2024-02-26T04:53:02;0.80;;;0.80;;
8219;SDS011;4151;51.110;7.020;2024-02-26T04:55:27;3.10;;;1.00;;
8219;SDS011;4151;51.110;7.020;2024-02-26T04:57:53;1.67;;;0.90;;
8219;SDS011;4151;51.110;7.020;2024-02-26T05:00:18;3.97;;;0.90;;
8219;SDS011;4151;51.110;7.020;2024-02-26T05:02:44;0.83;;;0.77;;
8219;SDS011;4151;51.110;7.020;2024-02-26T05:05:10;1.13;;;0.83;;
8219;SDS011;4151;51.110;7.020;2024-02-26T05:07:41;1.47;;;0.70;;
8219;SDS011;4151;51.110;7.020;2024-02-26T05:10:10;2.10;;;1.10;;
8219;SDS011;4151;51.110;7.020;2024-02-26T05:12:36;4.03;;;1.07;;
8219;SDS011;4151;51.110;7.020;2024-02-26T05:15:02;1.67;;;0.70;;
8219;SDS011;4151;51.110;7.020;2024-02-26T05:17:28;1.60;;;1.00;;
8219;SDS011;4151;51.110;7.020;2024-02-26T05:19:53;1.83;;;1.20;;
8219;SDS011;4151;51.110;7.020;2024-02-26T05:22:19;0.90;;;0.70;;
8219;SDS011;4151;51.110;7.020;2024-02-26T05:24:45;0.90;;;0.87;;
8219;SDS011;4151;51.110;7.020;2024-02-26T05:27:10;3.40;;;0.93;;
8219;SDS011;4151;51.110;7.020;2024-02-26T05:29:37;4.20;;;1.33;;
8219;SDS011;4151;51.110;7.020;2024-02-26T05:32:03;1.43;;;1.10;;
8219;SDS011;4151;51.110;7.020;2024-02-26T05:34:29;7.93;;;1.00;;
8219;SDS011;4151;51.110;7.020;2024-02-26T05:36:55;6.17;;;1.30;;
8219;SDS011;4151;51.110;7.020;2024-02-26T05:39:21;1.00;;;0.80;;
8219;SDS011;4151;51.110;7.020;2024-02-26T05:41:46;1.20;;;1.00;;
8219;SDS011;4151;51.110;7.020;2024-02-26T05:44:12;2.40;;;1.17;;
8219;SDS011;4151;51.110;7.020;2024-02-26T05:46:37;1.10;;;0.90;;
8219;SDS011;4151;51.110;7.020;2024-02-26T05:49:03;4.50;;;1.00;;
8219;SDS011;4151;51.110;7.020;2024-02-26T05:51:28;2.37;;;1.10;;
8219;SDS011;4151;51.110;7.020;2024-02-26T05:53:54;1.47;;;1.00;;
8219;SDS011;4151;51.110;7.020;2024-02-26T05:56:23;1.63;;;1.20;;
8219;SDS011;4151;51.110;7.020;2024-02-26T05:58:48;2.03;;;1.27;;
8219;SDS011;4151;51.110;7.020;2024-02-26T06:01:15;1.07;;;0.97;;
8219;SDS011;4151;51.110;7.020;2024-02-26T06:03:42;6.43;;;1.30;;
8219;SDS011;4151;51.110;7.020;2024-02-26T06:06:08;1.30;;;1.00;;
8219;SDS011;4151;51.110;7.020;2024-02-26T06:08:33;1.40;;;1.10;;
8219;SDS011;4151;51.110;7.020;2024-02-26T06:10:59;1.40;;;1.30;;
8219;SDS011;4151;51.110;7.020;2024-02-26T06:13:24;3.43;;;1.90;;
8219;SDS011;4151;51.110;7.020;2024-02-26T06:15:50;4.10;;;1.83;;
8219;SDS011;4151;51.110;7.020;2024-02-26T06:18:15;1.33;;;1.23;;
8219;SDS011;4151;51.110;7.020;2024-02-26T06:20:41;2.90;;;1.60;;
8219;SDS011;4151;51.110;7.020;2024-02-26T06:23:06;2.20;;;1.37;;
8219;SDS011;4151;51.110;7.020;2024-02-26T06:25:32;8.70;;;2.80;;
8219;SDS011;4151;51.110;7.020;2024-02-26T06:27:58;1.63;;;1.43;;
8219;SDS011;4151;51.110;7.020;2024-02-26T06:30:23;4.87;;;1.50;;
8219;SDS011;4151;51.110;7.020;2024-02-26T06:32:49;1.40;;;1.03;;
8219;SDS011;4151;51.110;7.020;2024-02-26T06:35:14;4.37;;;1.57;;
8219;SDS011;4151;51.110;7.020;2024-02-26T06:37:40;2.50;;;1.30;;
8219;SDS011;4151;51.110;7.020;2024-02-26T06:40:05;3.57;;;1.40;;
8219;SDS011;4151;51.110;7.020;2024-02-26T06:42:32;2.03;;;1.30;;
8219;SDS011;4151;51.110;7.020;2024-02-26T06:44:58;3.53;;;1.40;;
8219;SDS011;4151;51.110;7.020;2024-02-26T06:47:23;4.60;;;1.40;;
8219;SDS011;4151;51.110;7.020;2024-02-26T06:49:49;7.53;;;1.50;;
8219;SDS011;4151;51.110;7.020;2024-02-26T06:52:14;2.03;;;1.37;;
8219;SDS011;4151;51.110;7.020;2024-02-26T06:54:40;4.70;;;1.70;;
8219;SDS011;4151;51.110;7.020;2024-02-26T06:57:06;2.93;;;1.63;;
8219;SDS011;4151;51.110;7.020;2024-02-26T06:59:32;4.50;;;1.50;;
8219;SDS011;4151;51.110;7.020;2024-02-26T07:01:57;2.80;;;1.67;;
8219;SDS011;4151;51.110;7.020;2024-02-26T07:04:23;3.70;;;1.63;;
8219;SDS011;4151;51.110;7.020;2024-02-26T07:06:48;4.83;;;1.47;;
8219;SDS011;4151;51.110;7.020;2024-02-26T07:09:14;2.17;;;1.60;;
8219;SDS011;4151;51.110;7.020;2024-02-26T07:11:40;2.53;;;1.50;;
8219;SDS011;4151;51.110;7.020;2024-02-26T07:14:07;1.73;;;1.40;;
8219;SDS011;4151;51.110;7.020;2024-02-26T07:16:37;1.90;;;1.67;;
8219;SDS011;4151;51.110;7.020;2024-02-26T07:19:02;5.73;;;1.90;;
8219;SDS011;4151;51.110;7.020;2024-02-26T07:21:28;3.43;;;1.73;;
8219;SDS011;4151;51.110;7.020;2024-02-26T07:23:54;3.30;;;1.87;;
8219;SDS011;4151;51.110;7.020;2024-02-26T07:26:19;1.80;;;1.40;;
8219;SDS011;4151;51.110;7.020;2024-02-26T07:28:45;2.10;;;1.70;;
8219;SDS011;4151;51.110;7.020;2024-02-26T07:31:11;3.40;;;1.83;;
8219;SDS011;4151;51.110;7.020;2024-02-26T07:33:37;1.50;;;1.40;;
8219;SDS011;4151;51.110;7.020;2024-02-26T07:36:03;5.43;;;1.67;;
8219;SDS011;4151;51.110;7.020;2024-02-26T07:38:28;4.10;;;1.70;;
8219;SDS011;4151;51.110;7.020;2024-02-26T07:40:54;6.87;;;3.03;;
8219;SDS011;4151;51.110;7.020;2024-02-26T07:43:21;4.40;;;1.77;;
8219;SDS011;4151;51.110;7.020;2024-02-26T07:45:47;3.80;;;1.67;;
8219;SDS011;4151;51.110;7.020;2024-02-26T07:48:12;2.40;;;1.50;;
8219;SDS011;4151;51.110;7.020;2024-02-26T07:50:38;2.07;;;1.60;;
8219;SDS011;4151;51.110;7.020;2024-02-26T07:53:05;2.60;;;1.70;;
8219;SDS011;4151;51.110;7.020;2024-02-26T07:55:31;2.43;;;1.57;;
8219;SDS011;4151;51.110;7.020;2024-02-26T07:57:56;2.20;;;1.47;;
8219;SDS011;4151;51.110;7.020;2024-02-26T08:00:22;2.53;;;1.80;;
8219;SDS011;4151;51.110;7.020;2024-02-26T08:02:47;2.73;;;1.23;;
8219;SDS011;4151;51.110;7.020;2024-02-26T08:05:13;2.00;;;1.47;;
8219;SDS011;4151;51.110;7.020;2024-02-26T08:07:39;2.43;;;1.43;;
8219;SDS011;4151;51.110;7.020;2024-02-26T08:10:05;1.80;;;1.43;;
8219;SDS011;4151;51.110;7.020;2024-02-26T08:12:30;3.53;;;1.40;;
8219;SDS011;4151;51.110;7.020;2024-02-26T08:14:56;4.10;;;1.83;;
8219;SDS011;4151;51.110;7.020;2024-02-26T08:17:23;1.97;;;1.30;;
8219;SDS011;4151;51.110;7.020;2024-02-26T08:19:48;5.90;;;1.90;;
8219;SDS011;4151;51.110;7.020;2024-02-26T08:22:14;3.53;;;1.70;;
8219;SDS011;4151;51.110;7.020;2024-02-26T08:24:42;1.73;;;1.10;;
8219;SDS011;4151;51.110;7.020;2024-02-26T08:27:07;3.80;;;1.60;;
8219;SDS011;4151;51.110;7.020;2024-02-26T08:29:33;2.37;;;1.57;;
8219;SDS011;4151;51.110;7.020;2024-02-26T08:31:58;1.93;;;1.33;;
8219;SDS011;4151;51.110;7.020;2024-02-26T08:34:24;3.50;;;1.50;;
8219;SDS011;4151;51.110;7.020;2024-02-26T08:36:50;1.77;;;1.60;;
8219;SDS011;4151;51.110;7.020;2024-02-26T08:39:16;1.73;;;1.47;;
8219;SDS011;4151;51.110;7.020;2024-02-26T08:41:42;3.80;;;1.70;;
8219;SDS011;4151;51.110;7.020;2024-02-26T08:44:11;3.67;;;1.57;;
8219;SDS011;4151;51.110;7.020;2024-02-26T08:46:36;1.90;;;1.70;;
8219;SDS011;4151;51.110;7.020;2024-02-26T08:49:02;1.50;;;1.17;;
8219;SDS011;4151;51.110;7.020;2024-02-26T08:51:28;3.23;;;1.40;;
8219;SDS011;4151;51.110;7.020;2024-02-26T08:53:54;4.80;;;1.30;;
8219;SDS011;4151;51.110;7.020;2024-02-26T08:56:19;1.30;;;1.03;;
8219;SDS011;4151;51.110;7.020;2024-02-26T08:58:46;1.83;;;1.60;;
8219;SDS011;4151;51.110;7.020;2024-02-26T09:01:13;4.17;;;1.80;;
8219;SDS011;4151;51.110;7.020;2024-02-26T09:03:39;5.73;;;1.50;;
8219;SDS011;4151;51.110;7.020;2024-02-26T09:06:05;6.57;;;1.60;;
8219;SDS011;4151;51.110;7.020;2024-02-26T09:08:31;2.10;;;1.60;;
8219;SDS011;4151;51.110;7.020;2024-02-26T09:10:57;2.17;;;1.63;;
8219;SDS011;4151;51.110;7.020;2024-02-26T09:13:23;1.77;;;1.63;;
8219;SDS011;4151;51.110;7.020;2024-02-26T09:15:49;2.60;;;1.70;;
8219;SDS011;4151;51.110;7.020;2024-02-26T09:18:14;2.77;;;1.50;;
8219;SDS011;4151;51.110;7.020;2024-02-26T09:20:40;1.80;;;1.60;;
8219;SDS011;4151;51.110;7.020;2024-02-26T09:23:06;10.50;;;1.50;;
8219;SDS011;4151;51.110;7.020;2024-02-26T09:25:32;2.17;;;1.60;;
8219;SDS011;4151;51.110;7.020;2024-02-26T09:28:00;8.43;;;1.93;;
8219;SDS011;4151;51.110;7.020;2024-02-26T09:30:26;2.00;;;1.57;;
8219;SDS011;4151;51.110;7.020;2024-02-26T09:32:52;4.90;;;1.47;;
8219;SDS011;4151;51.110;7.020;2024-02-26T09:35:17;1.83;;;1.27;;
8219;SDS011;4151;51.110;7.020;2024-02-26T09:37:43;2.57;;;1.50;;
8219;SDS011;4151;51.110;7.020;2024-02-26T09:40:09;2.17;;;1.43;;
8219;SDS011;4151;51.110;7.020;2024-02-26T09:42:45;2.37;;;1.43;;
8219;SDS011;4151;51.110;7.020;2024-02-26T09:45:12;2.57;;;2.00;;
8219;SDS011;4151;51.110;7.020;2024-02-26T09:47:42;3.33;;;1.60;;
8219;SDS011;4151;51.110;7.020;2024-02-26T09:50:09;3.00;;;1.90;;
8219;SDS011;4151;51.110;7.020;2024-02-26T09:52:38;2.10;;;1.47;;
8219;SDS011;4151;51.110;7.020;2024-02-26T09:55:06;2.27;;;1.70;;
8219;SDS011;4151;51.110;7.020;2024-02-26T09:57:34;2.80;;;1.90;;
8219;SDS011;4151;51.110;7.020;2024-02-26T10:00:02;3.87;;;1.83;;
8219;SDS011;4151;51.110;7.020;2024-02-26T10:02:30;2.00;;;1.60;;
8219;SDS011;4151;51.110;7.020;2024-02-26T10:04:57;3.87;;;1.60;;
8219;SDS011;4151;51.110;7.020;2024-02-26T10:07:29;1.70;;;1.50;;
8219;SDS011;4151;51.110;7.020;2024-02-26T10:09:55;1.67;;;1.57;;
8219;SDS011;4151;51.110;7.020;2024-02-26T10:12:21;1.87;;;1.63;;
8219;SDS011;4151;51.110;7.020;2024-02-26T10:14:48;4.70;;;2.10;;
8219;SDS011;4151;51.110;7.020;2024-02-26T10:17:13;2.53;;;1.67;;
8219;SDS011;4151;51.110;7.020;2024-02-26T10:19:40;2.23;;;1.87;;
8219;SDS011;4151;51.110;7.020;2024-02-26T10:22:05;5.60;;;1.90;;
8219;SDS011;4151;51.110;7.020;2024-02-26T10:24:31;2.30;;;1.60;;
8219;SDS011;4151;51.110;7.020;2024-02-26T10:26:57;3.80;;;2.10;;
8219;SDS011;4151;51.110;7.020;2024-02-26T10:29:23;2.17;;;1.83;;
8219;SDS011;4151;51.110;7.020;2024-02-26T10:31:52;2.50;;;1.67;;
8219;SDS011;4151;51.110;7.020;2024-02-26T10:34:19;3.03;;;1.80;;
8219;SDS011;4151;51.110;7.020;2024-02-26T10:36:45;2.60;;;2.27;;
8219;SDS011;4151;51.110;7.020;2024-02-26T10:39:13;4.97;;;1.80;;
8219;SDS011;4151;51.110;7.020;2024-02-26T10:41:40;2.50;;;1.80;;
8219;SDS011;4151;51.110;7.020;2024-02-26T10:44:08;3.53;;;1.83;;
8219;SDS011;4151;51.110;7.020;2024-02-26T10:46:35;3.00;;;1.80;;
8219;SDS011;4151;51.110;7.020;2024-02-26T10:49:02;4.00;;;2.27;;
8219;SDS011;4151;51.110;7.020;2024-02-26T10:51:28;4.47;;;2.07;;
8219;SDS011;4151;51.110;7.020;2024-02-26T10:53:56;2.70;;;1.60;;
8219;SDS011;4151;51.110;7.020;2024-02-26T10:56:28;3.37;;;1.93;;
8219;SDS011;4151;51.110;7.020;2024-02-26T10:58:57;5.40;;;2.10;;
8219;SDS011;4151;51.110;7.020;2024-02-26T11:01:23;2.20;;;1.47;;
8219;SDS011;4151;51.110;7.020;2024-02-26T11:03:50;2.23;;;1.90;;
8219;SDS011;4151;51.110;7.020;2024-02-26T11:06:17;2.40;;;1.93;;
8219;SDS011;4151;51.110;7.020;2024-02-26T11:08:49;2.50;;;1.77;;
8219;SDS011;4151;51.110;7.020;2024-02-26T11:11:18;3.20;;;2.10;;
8219;SDS011;4151;51.110;7.020;2024-02-26T11:13:45;4.93;;;1.97;;
8219;SDS011;4151;51.110;7.020;2024-02-26T11:16:16;2.07;;;1.60;;
8219;SDS011;4151;51.110;7.020;2024-02-26T11:18:43;4.07;;;1.50;;
8219;SDS011;4151;51.110;7.020;2024-02-26T11:21:12;3.13;;;2.00;;
8219;SDS011;4151;51.110;7.020;2024-02-26T11:23:41;3.67;;;2.23;;
8219;SDS011;4151;51.110;7.020;2024-02-26T11:26:07;2.03;;;1.47;;
8219;SDS011;4151;51.110;7.020;2024-02-26T11:28:35;3.90;;;1.50;;
8219;SDS011;4151;51.110;7.020;2024-02-26T11:31:02;3.77;;;1.73;;
8219;SDS011;4151;51.110;7.020;2024-02-26T11:33:29;3.77;;;2.00;;
8219;SDS011;4151;51.110;7.020;2024-02-26T11:35:56;2.77;;;1.77;;
8219;SDS011;4151;51.110;7.020;2024-02-26T11:38:23;2.90;;;1.67;;
8219;SDS011;4151;51.110;7.020;2024-02-26T11:40:50;1.63;;;1.50;;
8219;SDS011;4151;51.110;7.020;2024-02-26T11:43:17;2.50;;;1.70;;
8219;SDS011;4151;51.110;7.020;2024-02-26T11:48:13;2.03;;;1.70;;
8219;SDS011;4151;51.110;7.020;2024-02-26T11:50:40;3.00;;;1.40;;
8219;SDS011;4151;51.110;7.020;2024-02-26T11:53:26;2.80;;;1.80;;
8219;SDS011;4151;51.110;7.020;2024-02-26T11:59:04;4.90;;;2.10;;
8219;SDS011;4151;51.110;7.020;2024-02-26T12:01:38;3.10;;;1.97;;
8219;SDS011;4151;51.110;7.020;2024-02-26T12:04:05;6.53;;;1.93;;
8219;SDS011;4151;51.110;7.020;2024-02-26T12:06:57;4.73;;;2.10;;
8219;SDS011;4151;51.110;7.020;2024-02-26T12:12:02;3.40;;;2.13;;
8219;SDS011;4151;51.110;7.020;2024-02-26T12:14:29;3.00;;;1.90;;
8219;SDS011;4151;51.110;7.020;2024-02-26T12:16:55;5.00;;;2.50;;
8219;SDS011;4151;51.110;7.020;2024-02-26T12:19:21;8.80;;;2.10;;
8219;SDS011;4151;51.110;7.020;2024-02-26T12:21:51;7.07;;;2.10;;
8219;SDS011;4151;51.110;7.020;2024-02-26T12:24:18;8.17;;;2.50;;
8219;SDS011;4151;51.110;7.020;2024-02-26T12:26:45;9.33;;;3.00;;
8219;SDS011;4151;51.110;7.020;2024-02-26T12:29:10;4.60;;;2.50;;
8219;SDS011;4151;51.110;7.020;2024-02-26T12:31:37;6.50;;;2.80;;
8219;SDS011;4151;51.110;7.020;2024-02-26T12:34:04;3.87;;;2.50;;
8219;SDS011;4151;51.110;7.020;2024-02-26T12:36:31;6.10;;;2.53;;
8219;SDS011;4151;51.110;7.020;2024-02-26T12:38:57;4.50;;;2.77;;
8219;SDS011;4151;51.110;7.020;2024-02-26T12:41:23;3.37;;;2.50;;
8219;SDS011;4151;51.110;7.020;2024-02-26T12:43:48;4.97;;;2.77;;
8219;SDS011;4151;51.110;7.020;2024-02-26T12:46:14;4.03;;;2.80;;
8219;SDS011;4151;51.110;7.020;2024-02-26T12:48:44;4.07;;;2.47;;
8219;SDS011;4151;51.110;7.020;2024-02-26T12:51:10;4.03;;;2.80;;
8219;SDS011;4151;51.110;7.020;2024-02-26T12:53:40;3.83;;;2.63;;
8219;SDS011;4151;51.110;7.020;2024-02-26T12:56:07;6.43;;;3.13;;
8219;SDS011;4151;51.110;7.020;2024-02-26T12:58:34;4.97;;;3.00;;
8219;SDS011;4151;51.110;7.020;2024-02-26T13:01:03;4.50;;;2.70;;
8219;SDS011;4151;51.110;7.020;2024-02-26T13:03:28;3.80;;;2.90;;
8219;SDS011;4151;51.110;7.020;2024-02-26T13:05:55;6.07;;;3.07;;
8219;SDS011;4151;51.110;7.020;2024-02-26T13:08:21;3.60;;;2.70;;
8219;SDS011;4151;51.110;7.020;2024-02-26T13:10:46;3.90;;;3.00;;
8219;SDS011;4151;51.110;7.020;2024-02-26T13:13:16;4.20;;;3.10;;
8219;SDS011;4151;51.110;7.020;2024-02-26T13:15:45;6.13;;;3.20;;
8219;SDS011;4151;51.110;7.020;2024-02-26T13:18:11;5.27;;;3.23;;
8219;SDS011;4151;51.110;7.020;2024-02-26T13:20:41;5.47;;;3.37;;
8219;SDS011;4151;51.110;7.020;2024-02-26T13:23:07;5.37;;;3.00;;
8219;SDS011;4151;51.110;7.020;2024-02-26T13:25:35;4.93;;;3.17;;
8219;SDS011;4151;51.110;7.020;2024-02-26T13:30:52;7.63;;;3.83;;
8219;SDS011;4151;51.110;7.020;2024-02-26T13:33:21;8.33;;;4.17;;
8219;SDS011;4151;51.110;7.020;2024-02-26T13:35:47;8.60;;;4.23;;
8219;SDS011;4151;51.110;7.020;2024-02-26T13:38:13;11.47;;;5.10;;
8219;SDS011;4151;51.110;7.020;2024-02-26T13:40:39;11.17;;;3.87;;
8219;SDS011;4151;51.110;7.020;2024-02-26T13:43:05;10.40;;;5.30;;
8219;SDS011;4151;51.110;7.020;2024-02-26T13:45:33;10.67;;;5.77;;
8219;SDS011;4151;51.110;7.020;2024-02-26T13:48:10;8.90;;;5.00;;
8219;SDS011;4151;51.110;7.020;2024-02-26T13:50:36;10.93;;;5.00;;
8219;SDS011;4151;51.110;7.020;2024-02-26T13:53:02;12.30;;;6.50;;
8219;SDS011;4151;51.110;7.020;2024-02-26T13:55:28;13.80;;;7.40;;
8219;SDS011;4151;51.110;7.020;2024-02-26T13:57:56;17.37;;;8.00;;
8219;SDS011;4151;51.110;7.020;2024-02-26T14:00:22;15.10;;;7.50;;
8219;SDS011;4151;51.110;7.020;2024-02-26T14:02:49;15.53;;;7.47;;
8219;SDS011;4151;51.110;7.020;2024-02-26T14:05:15;14.87;;;7.93;;
8219;SDS011;4151;51.110;7.020;2024-02-26T14:07:41;15.17;;;7.30;;
8219;SDS011;4151;51.110;7.020;2024-02-26T14:10:07;13.80;;;7.50;;
8219;SDS011;4151;51.110;7.020;2024-02-26T14:12:36;15.63;;;7.90;;
8219;SDS011;4151;51.110;7.020;2024-02-26T14:15:02;16.67;;;8.43;;
8219;SDS011;4151;51.110;7.020;2024-02-26T14:17:30;18.37;;;8.43;;
8219;SDS011;4151;51.110;7.020;2024-02-26T14:19:55;18.20;;;7.93;;
8219;SDS011;4151;51.110;7.020;2024-02-26T14:22:21;13.67;;;7.83;;
8219;SDS011;4151;51.110;7.020;2024-02-26T14:24:46;15.10;;;7.47;;
8219;SDS011;4151;51.110;7.020;2024-02-26T14:27:13;16.23;;;8.87;;
8219;SDS011;4151;51.110;7.020;2024-02-26T14:29:42;17.03;;;7.83;;
8219;SDS011;4151;51.110;7.020;2024-02-26T14:32:11;14.90;;;8.23;;
8219;SDS011;4151;51.110;7.020;2024-02-26T14:34:37;13.57;;;7.57;;
8219;SDS011;4151;51.110;7.020;2024-02-26T14:37:03;15.73;;;8.03;;
8219;SDS011;4151;51.110;7.020;2024-02-26T14:39:29;18.37;;;8.00;;
8219;SDS011;4151;51.110;7.020;2024-02-26T14:41:56;16.60;;;8.30;;
8219;SDS011;4151;51.110;7.020;2024-02-26T14:44:22;16.67;;;8.00;;
8219;SDS011;4151;51.110;7.020;2024-02-26T14:46:48;13.97;;;6.20;;
8219;SDS011;4151;51.110;7.020;2024-02-26T14:49:13;17.53;;;7.67;;
8219;SDS011;4151;51.110;7.020;2024-02-26T14:51:39;12.10;;;7.67;;
8219;SDS011;4151;51.110;7.020;2024-02-26T14:54:04;12.63;;;8.00;;
8219;SDS011;4151;51.110;7.020;2024-02-26T14:56:30;17.10;;;8.00;;
8219;SDS011;4151;51.110;7.020;2024-02-26T14:58:55;13.50;;;7.37;;
8219;SDS011;4151;51.110;7.020;2024-02-26T15:01:21;13.47;;;6.97;;
8219;SDS011;4151;51.110;7.020;2024-02-26T15:03:48;12.20;;;7.20;;
8219;SDS011;4151;51.110;7.020;2024-02-26T15:06:13;17.00;;;8.33;;
8219;SDS011;4151;51.110;7.020;2024-02-26T15:08:39;16.20;;;7.77;;
8219;SDS011;4151;51.110;7.020;2024-02-26T15:11:05;16.30;;;7.00;;
8219;SDS011;4151;51.110;7.020;2024-02-26T15:13:30;14.33;;;7.30;;
8219;SDS011;4151;51.110;7.020;2024-02-26T15:15:56;14.30;;;7.23;;
8219;SDS011;4151;51.110;7.020;2024-02-26T15:18:21;18.83;;;10.40;;
8219;SDS011;4151;51.110;7.020;2024-02-26T15:20:47;29.87;;;12.07;;